createdAt,value
2022-07-27T00:00:40.226Z,0.77
2022-07-27T00:03:46.795Z,0.88
2022-07-27T00:06:54.291Z,1.05
2022-07-27T00:10:00.366Z,0.98
2022-07-27T00:13:11.395Z,1.00
2022-07-27T00:16:17.393Z,1.00
2022-07-27T00:19:25.879Z,0.80
2022-07-27T00:22:31.668Z,1.05
2022-07-27T00:25:39.656Z,1.05
2022-07-27T00:28:48.044Z,0.90
2022-07-27T00:31:55.607Z,0.88
2022-07-27T00:35:01.259Z,0.88
2022-07-27T00:38:08.905Z,0.70
2022-07-27T00:41:14.438Z,0.90
2022-07-27T00:44:33.266Z,0.90
2022-07-27T00:47:39.035Z,0.93
2022-07-27T00:50:47.324Z,0.80
2022-07-27T00:53:54.392Z,0.98
2022-07-27T00:57:02.010Z,0.87
2022-07-27T01:00:12.068Z,1.02
2022-07-27T01:03:19.613Z,0.90
2022-07-27T01:06:29.622Z,0.82
2022-07-27T01:09:53.166Z,1.02
2022-07-27T01:12:58.589Z,0.80
2022-07-27T01:16:10.841Z,1.00
2022-07-27T01:19:17.912Z,0.95
2022-07-27T01:22:28.930Z,0.73
2022-07-27T01:25:34.437Z,1.00
2022-07-27T01:28:42.024Z,1.13
2022-07-27T01:31:47.706Z,0.75
2022-07-27T01:34:55.400Z,1.13
2022-07-27T01:38:03.873Z,1.05
2022-07-27T01:41:11.315Z,0.80
2022-07-27T01:44:17.405Z,0.90
2022-07-27T01:47:27.303Z,0.80
2022-07-27T01:50:33.984Z,0.95
2022-07-27T01:53:44.378Z,1.10
2022-07-27T01:56:50.129Z,0.90
2022-07-27T01:59:57.646Z,0.85
2022-07-27T02:03:03.032Z,1.10
2022-07-27T02:06:11.050Z,0.90
2022-07-27T02:09:21.308Z,0.95
2022-07-27T02:12:44.853Z,1.00
2022-07-27T02:15:50.700Z,1.10
2022-07-27T02:19:04.750Z,1.00
2022-07-27T02:22:10.880Z,1.17
2022-07-27T02:25:22.913Z,1.10
2022-07-27T02:31:35.988Z,1.10
2022-07-27T02:34:42.700Z,1.20
2022-07-27T02:37:50.353Z,1.13
2022-07-27T02:40:58.521Z,1.20
2022-07-27T02:44:06.211Z,1.10
2022-07-27T02:47:11.936Z,1.35
2022-07-27T02:50:19.547Z,1.40
2022-07-27T02:53:25.032Z,1.25
2022-07-27T02:56:35.474Z,1.20
2022-07-27T02:59:40.791Z,1.30
2022-07-27T03:02:52.292Z,1.30
2022-07-27T03:05:57.778Z,1.20
2022-07-27T03:09:05.443Z,1.35
2022-07-27T03:12:14.347Z,1.38
2022-07-27T03:15:22.251Z,1.40
2022-07-27T03:18:28.049Z,1.30
2022-07-27T03:21:35.952Z,1.20
2022-07-27T03:24:41.539Z,1.17
2022-07-27T03:27:52.156Z,1.30
2022-07-27T03:30:58.102Z,1.63
2022-07-27T03:34:06.021Z,1.30
2022-07-27T03:37:12.385Z,1.17
2022-07-27T03:40:19.890Z,1.55
2022-07-27T03:43:28.299Z,1.58
2022-07-27T03:46:36.254Z,1.38
2022-07-27T03:49:42.539Z,1.58
2022-07-27T03:52:50.414Z,1.05
2022-07-27T03:55:55.791Z,1.50
2022-07-27T03:59:06.215Z,1.27
2022-07-27T04:02:11.716Z,1.50
2022-07-27T04:05:21.052Z,1.70
2022-07-27T04:08:26.413Z,1.42
2022-07-27T04:11:33.992Z,1.40
2022-07-27T04:14:42.354Z,1.33
2022-07-27T04:17:56.297Z,1.50
2022-07-27T04:21:06.418Z,1.40
2022-07-27T04:24:14.311Z,1.17
2022-07-27T04:27:19.837Z,1.55
2022-07-27T04:30:31.330Z,1.17
2022-07-27T04:33:36.949Z,1.50
2022-07-27T04:36:45.054Z,1.42
2022-07-27T04:39:50.426Z,1.20
2022-07-27T04:42:57.903Z,1.40
2022-07-27T04:46:14.775Z,1.35
2022-07-27T04:49:23.101Z,1.45
2022-07-27T04:52:29.006Z,1.17
2022-07-27T04:55:37.287Z,1.40
2022-07-27T04:58:42.761Z,1.58
2022-07-27T05:01:53.107Z,1.27
2022-07-27T05:04:58.507Z,1.10
2022-07-27T05:08:06.248Z,1.27
2022-07-27T05:11:12.482Z,1.30
2022-07-27T05:14:21.497Z,1.30
2022-07-27T05:17:29.931Z,1.50
2022-07-27T05:20:37.989Z,1.40
2022-07-27T05:23:43.518Z,1.50
2022-07-27T05:26:51.310Z,1.33
2022-07-27T05:29:57.168Z,1.40
2022-07-27T05:33:08.233Z,1.50
2022-07-27T05:36:13.829Z,1.30
2022-07-27T05:39:22.071Z,1.42
2022-07-27T05:42:27.668Z,1.35
2022-07-27T05:45:35.364Z,1.40
2022-07-27T05:48:43.940Z,1.30
2022-07-27T05:51:51.734Z,1.10
2022-07-27T05:54:57.431Z,1.30
2022-07-27T05:58:05.234Z,1.20
2022-07-27T06:01:10.735Z,1.30
2022-07-27T06:04:21.158Z,1.45
2022-07-27T06:07:42.267Z,1.30
2022-07-27T06:10:49.831Z,1.60
2022-07-27T06:13:56.324Z,1.23
2022-07-27T06:17:04.043Z,1.52
2022-07-27T06:20:13.968Z,1.50
2022-07-27T06:23:23.984Z,1.40
2022-07-27T06:26:29.486Z,1.20
2022-07-27T06:29:37.359Z,1.33
2022-07-27T06:32:43.299Z,1.35
2022-07-27T06:35:54.175Z,1.30
2022-07-27T06:38:59.687Z,1.42
2022-07-27T06:42:07.373Z,1.42
2022-07-27T06:45:14.196Z,1.30
2022-07-27T06:48:21.852Z,1.27
2022-07-27T06:51:30.261Z,1.20
2022-07-27T06:54:37.842Z,1.08
2022-07-27T06:57:46.734Z,1.50
2022-07-27T07:00:54.326Z,1.17
2022-07-27T07:04:00.416Z,1.50
2022-07-27T07:07:10.671Z,1.38
2022-07-27T07:10:16.323Z,1.30
2022-07-27T07:13:23.942Z,1.20
2022-07-27T07:16:29.462Z,1.30
2022-07-27T07:19:37.095Z,1.40
2022-07-27T07:22:49.134Z,1.30
2022-07-27T07:25:56.855Z,1.35
2022-07-27T07:29:02.431Z,1.10
2022-07-27T07:32:10.560Z,1.10
2022-07-27T07:35:16.419Z,1.50
2022-07-27T07:38:26.759Z,1.17
2022-07-27T07:41:32.200Z,1.20
2022-07-27T07:44:39.931Z,1.35
2022-07-27T07:47:45.367Z,1.30
2022-07-27T07:50:54.524Z,1.45
2022-07-27T07:54:03.421Z,1.27
2022-07-27T07:57:11.337Z,1.20
2022-07-27T08:00:18.079Z,1.13
2022-07-27T08:03:25.652Z,1.27
2022-07-27T08:06:31.112Z,1.40
2022-07-27T08:09:41.672Z,1.15
2022-07-27T08:12:48.662Z,1.15
2022-07-27T08:15:56.513Z,1.20
2022-07-27T08:19:01.931Z,1.25
2022-07-27T08:22:09.785Z,1.13
2022-07-27T08:25:20.400Z,1.13
2022-07-27T08:28:27.708Z,1.10
2022-07-27T08:31:52.736Z,1.55
2022-07-27T08:34:58.925Z,1.23
2022-07-27T08:38:09.723Z,1.10
2022-07-27T08:41:18.800Z,1.27
2022-07-27T08:44:29.949Z,1.25
2022-07-27T08:47:36.320Z,1.40
2022-07-27T08:50:52.398Z,1.10
2022-07-27T08:53:58.856Z,1.27
2022-07-27T08:57:10.790Z,1.23
2022-07-27T09:03:26.292Z,1.00
2022-07-27T09:06:54.436Z,1.00
2022-07-27T09:10:02.458Z,1.45
2022-07-27T09:13:24.735Z,1.30
2022-07-27T09:17:14.739Z,1.40
2022-07-27T09:20:02.125Z,1.20
2022-07-27T09:23:09.811Z,1.20
2022-07-27T09:26:31.117Z,1.30
2022-07-27T09:29:42.636Z,1.30
2022-07-27T09:32:59.941Z,1.10
2022-07-27T09:36:05.546Z,0.95
2022-07-27T09:39:13.006Z,1.20
2022-07-27T09:43:03.809Z,1.27
2022-07-27T09:45:51.949Z,1.50
2022-07-27T09:48:57.508Z,1.00
2022-07-27T09:52:06.819Z,1.23
2022-07-27T09:55:13.301Z,1.20
2022-07-27T09:58:21.108Z,1.35
2022-07-27T10:01:31.198Z,1.35
2022-07-27T10:04:38.884Z,1.23
2022-07-27T10:07:44.609Z,1.15
2022-07-27T10:10:52.727Z,1.60
2022-07-27T10:14:00.506Z,1.33
2022-07-27T10:20:22.345Z,1.30
2022-07-27T10:23:32.891Z,1.23
2022-07-27T10:26:39.987Z,1.10
2022-07-27T10:29:47.667Z,1.20
2022-07-27T10:32:56.033Z,1.40
2022-07-27T10:36:05.005Z,1.23
2022-07-27T10:39:11.385Z,1.20
2022-07-27T10:42:36.700Z,1.30
2022-07-27T10:46:00.234Z,1.20
2022-07-27T10:49:25.247Z,1.10
2022-07-27T10:52:44.922Z,1.25
2022-07-27T10:55:54.713Z,1.33
2022-07-27T10:59:00.410Z,1.30
2022-07-27T11:02:10.826Z,1.60
2022-07-27T11:05:58.581Z,1.30
2022-07-27T11:09:27.253Z,1.23
2022-07-27T11:12:22.355Z,1.50
2022-07-27T11:15:32.763Z,1.20
2022-07-27T11:18:42.780Z,1.40
2022-07-27T11:21:54.203Z,1.55
2022-07-27T11:24:59.976Z,1.30
2022-07-27T11:28:10.449Z,1.60
2022-07-27T11:31:38.371Z,1.20
2022-07-27T11:34:45.164Z,1.50
2022-07-27T11:38:05.394Z,1.23
2022-07-27T11:41:29.173Z,1.27
2022-07-27T11:44:42.679Z,1.50
2022-07-27T11:48:00.189Z,1.40
2022-07-27T11:51:06.531Z,1.45
2022-07-27T11:54:22.371Z,1.30
2022-07-27T11:57:35.420Z,1.30
2022-07-27T12:00:45.078Z,1.00
2022-07-27T12:03:50.637Z,1.30
2022-07-27T12:07:04.222Z,1.30
2022-07-27T12:10:13.838Z,1.30
2022-07-27T12:13:22.078Z,1.00
2022-07-27T12:16:27.890Z,1.20
2022-07-27T12:19:35.579Z,1.50
2022-07-27T12:22:43.956Z,1.00
2022-07-27T12:25:54.358Z,1.30
2022-07-27T12:29:16.800Z,1.20
2022-07-27T12:32:24.861Z,1.20
2022-07-27T12:35:37.288Z,1.17
2022-07-27T12:38:52.595Z,1.15
2022-07-27T12:42:10.237Z,1.10
2022-07-27T12:45:22.350Z,1.40
2022-07-27T12:48:42.441Z,1.30
2022-07-27T12:51:52.353Z,1.50
2022-07-27T12:54:58.330Z,1.30
2022-07-27T12:58:11.175Z,1.25
2022-07-27T13:01:17.211Z,1.10
2022-07-27T13:04:24.920Z,1.25
2022-07-27T13:07:30.489Z,1.30
2022-07-27T13:10:39.817Z,1.02
2022-07-27T13:13:48.105Z,0.95
2022-07-27T13:16:56.071Z,1.20
2022-07-27T13:20:01.739Z,1.10
2022-07-27T13:23:11.691Z,1.20
2022-07-27T13:26:17.420Z,1.20
2022-07-27T13:29:27.941Z,1.20
2022-07-27T13:32:33.611Z,1.20
2022-07-27T13:35:41.217Z,1.05
2022-07-27T13:38:49.941Z,1.10
2022-07-27T13:41:57.423Z,1.02
2022-07-27T13:45:10.816Z,1.00
2022-07-27T13:48:19.415Z,1.33
2022-07-27T13:51:25.105Z,1.10
2022-07-27T13:54:32.751Z,1.00
2022-07-27T13:57:38.584Z,1.05
2022-07-27T14:00:49.858Z,1.45
2022-07-27T14:03:55.775Z,1.20
2022-07-27T14:07:03.420Z,1.00
2022-07-27T14:10:26.079Z,1.00
2022-07-27T14:13:36.376Z,1.10
2022-07-27T14:16:44.727Z,0.98
2022-07-27T14:19:53.152Z,0.90
2022-07-27T14:22:58.604Z,1.15
2022-07-27T14:26:08.159Z,1.05
2022-07-27T14:29:14.420Z,1.00
2022-07-27T14:32:25.449Z,1.10
2022-07-27T14:35:30.835Z,0.90
2022-07-27T14:38:40.018Z,1.10
2022-07-27T14:41:45.362Z,1.13
2022-07-27T14:44:53.063Z,1.00
2022-07-27T14:48:01.382Z,1.17
2022-07-27T14:51:09.230Z,0.90
2022-07-27T14:54:14.747Z,1.00
2022-07-27T14:57:22.321Z,1.15
2022-07-27T15:00:27.868Z,1.00
2022-07-27T15:03:38.369Z,1.13
2022-07-27T15:06:43.905Z,1.00
2022-07-27T15:09:51.391Z,1.10
2022-07-27T15:12:56.901Z,1.10
2022-07-27T15:16:04.566Z,1.20
2022-07-27T15:19:13.597Z,1.10
2022-07-27T15:22:21.410Z,1.10
2022-07-27T15:25:31.006Z,1.10
2022-07-27T15:28:39.505Z,1.00
2022-07-27T15:31:45.356Z,1.17
2022-07-27T15:34:55.626Z,1.30
2022-07-27T15:38:01.110Z,1.20
2022-07-27T15:41:08.752Z,1.20
2022-07-27T15:44:22.286Z,1.00
2022-07-27T15:47:29.880Z,1.10
2022-07-27T15:50:39.347Z,1.05
2022-07-27T15:53:47.201Z,1.73
2022-07-27T15:56:53.113Z,1.60
2022-07-27T16:00:00.694Z,1.30
2022-07-27T16:03:08.935Z,1.33
2022-07-27T16:06:19.455Z,1.00
2022-07-27T16:09:25.834Z,1.15
2022-07-27T16:12:37.845Z,1.08
2022-07-27T16:16:00.754Z,1.02
2022-07-27T16:19:12.952Z,1.38
2022-07-27T16:22:22.283Z,1.00
2022-07-27T16:25:53.295Z,1.10
2022-07-27T16:28:57.559Z,1.10
2022-07-27T16:32:05.559Z,1.13
2022-07-27T16:35:11.617Z,1.02
2022-07-27T16:38:21.882Z,1.00
2022-07-27T16:41:27.449Z,1.25
2022-07-27T16:44:36.386Z,1.17
2022-07-27T16:47:42.266Z,1.20
2022-07-27T16:50:49.616Z,1.10
2022-07-27T16:53:57.833Z,1.20
2022-07-27T16:57:05.217Z,1.33
2022-07-27T17:00:15.583Z,1.15
2022-07-27T17:03:24.167Z,1.20
2022-07-27T17:06:29.942Z,1.17
2022-07-27T17:09:40.205Z,1.20
2022-07-27T17:12:50.531Z,1.10
2022-07-27T17:16:01.014Z,1.10
2022-07-27T17:19:06.595Z,1.20
2022-07-27T17:22:14.111Z,1.10
2022-07-27T17:25:24.783Z,1.20
2022-07-27T17:28:33.546Z,1.13
2022-07-27T17:31:39.326Z,1.70
2022-07-27T17:34:46.950Z,1.33
2022-07-27T17:38:07.743Z,1.10
2022-07-27T17:41:24.697Z,1.15
2022-07-27T17:44:30.815Z,1.55
2022-07-27T17:47:38.566Z,1.33
2022-07-27T17:50:44.191Z,1.30
2022-07-27T17:53:51.761Z,1.27
2022-07-27T17:57:00.148Z,1.00
2022-07-27T18:00:09.735Z,1.08
2022-07-27T18:03:16.875Z,2.53
2022-07-27T18:06:24.297Z,24.17
2022-07-27T18:09:29.748Z,46.03
2022-07-27T18:12:39.930Z,112.70
2022-07-27T18:15:51.491Z,182.52
2022-07-27T18:18:59.003Z,155.57
2022-07-27T18:22:04.499Z,137.27
2022-07-27T18:25:12.928Z,110.07
2022-07-27T18:28:21.854Z,97.40
2022-07-27T18:31:29.594Z,97.45
2022-07-27T18:34:35.403Z,87.93
2022-07-27T18:37:42.959Z,79.05
2022-07-27T18:40:50.636Z,75.88
2022-07-27T18:44:02.423Z,73.15
2022-07-27T18:47:08.075Z,73.15
2022-07-27T18:50:15.780Z,71.03
2022-07-27T18:53:21.191Z,67.18
2022-07-27T18:56:28.902Z,65.45
2022-07-27T18:59:41.053Z,63.97
2022-07-27T19:02:51.822Z,60.47
2022-07-27T19:06:02.435Z,59.85
2022-07-27T19:09:10.538Z,57.30
2022-07-27T19:12:19.341Z,59.90
2022-07-27T19:15:30.048Z,55.88
2022-07-27T19:18:35.690Z,52.42
2022-07-27T19:21:43.237Z,52.60
2022-07-27T19:24:52.904Z,50.65
2022-07-27T19:28:03.106Z,47.90
2022-07-27T19:31:22.647Z,45.15
2022-07-27T19:34:31.261Z,46.33
2022-07-27T19:37:36.957Z,42.42
2022-07-27T19:40:46.045Z,42.78
2022-07-27T19:43:52.168Z,40.72
2022-07-27T19:47:02.686Z,39.10
2022-07-27T19:50:09.169Z,37.75
2022-07-27T19:53:16.816Z,38.13
2022-07-27T19:56:22.254Z,36.75
2022-07-27T19:59:29.647Z,35.78
2022-07-27T20:02:58.110Z,37.13
2022-07-27T20:06:07.158Z,34.80
2022-07-27T20:09:14.361Z,31.50
2022-07-27T20:12:22.276Z,32.22
2022-07-27T20:15:27.945Z,30.60
2022-07-27T20:18:38.392Z,30.00
2022-07-27T20:21:43.956Z,29.08
2022-07-27T20:24:51.556Z,28.85
2022-07-27T20:27:57.147Z,29.17
2022-07-27T20:31:05.351Z,27.63
2022-07-27T20:34:13.813Z,28.70
2022-07-27T20:37:21.321Z,26.08
2022-07-27T20:40:27.452Z,26.00
2022-07-27T20:43:35.061Z,25.65
2022-07-27T20:46:40.658Z,25.48
2022-07-27T20:49:51.139Z,23.92
2022-07-27T20:52:56.598Z,23.25
2022-07-27T20:56:04.268Z,23.15
2022-07-27T20:59:16.330Z,22.90
2022-07-27T21:02:24.738Z,22.48
2022-07-27T21:05:33.077Z,21.42
2022-07-27T21:08:46.212Z,21.20
2022-07-27T21:11:52.692Z,21.05
2022-07-27T21:15:00.359Z,20.02
2022-07-27T21:18:06.275Z,20.55
2022-07-27T21:21:16.677Z,19.88
2022-07-27T21:24:23.239Z,20.20
2022-07-27T21:27:31.120Z,20.63
2022-07-27T21:30:36.796Z,20.00
2022-07-27T21:33:44.703Z,20.13
2022-07-27T21:36:53.522Z,19.63
2022-07-27T21:40:00.935Z,19.00
2022-07-27T21:43:06.328Z,19.02
2022-07-27T21:46:14.117Z,18.52
2022-07-27T21:49:20.101Z,18.27
2022-07-27T21:52:35.233Z,18.10
2022-07-27T21:55:41.282Z,17.23
2022-07-27T21:58:49.341Z,17.52
2022-07-27T22:01:54.801Z,17.70
2022-07-27T22:05:02.750Z,17.45
2022-07-27T22:08:11.342Z,16.73
2022-07-27T22:11:19.042Z,16.98
2022-07-27T22:14:24.604Z,17.52
2022-07-27T22:17:32.278Z,16.27
2022-07-27T22:20:38.332Z,15.82
2022-07-27T22:23:48.825Z,16.23
2022-07-27T22:26:54.363Z,15.98
2022-07-27T22:30:03.020Z,16.67
2022-07-27T22:33:08.601Z,15.32
2022-07-27T22:36:16.478Z,14.88
2022-07-27T22:39:24.767Z,14.40
2022-07-27T22:42:32.763Z,15.07
2022-07-27T22:45:38.385Z,14.93
2022-07-27T22:48:46.007Z,13.90
2022-07-27T22:51:52.871Z,15.23
2022-07-27T22:55:06.911Z,13.88
2022-07-27T22:58:13.172Z,13.32
2022-07-27T23:01:45.677Z,14.07
2022-07-27T23:04:47.547Z,13.93
2022-07-27T23:07:55.673Z,13.07
2022-07-27T23:11:04.115Z,12.88
2022-07-27T23:14:11.977Z,12.65
2022-07-27T23:17:17.782Z,12.48
2022-07-27T23:20:25.435Z,12.43
2022-07-27T23:23:30.980Z,11.75
2022-07-27T23:26:46.526Z,12.93
2022-07-27T23:29:52.341Z,12.43
2022-07-27T23:33:00.180Z,11.73
2022-07-27T23:36:08.452Z,11.95
2022-07-27T23:39:16.036Z,12.48
2022-07-27T23:42:24.578Z,11.52
2022-07-27T23:45:34.927Z,11.02
2022-07-27T23:48:40.541Z,10.82
2022-07-27T23:51:48.397Z,11.05
2022-07-27T23:54:54.095Z,10.95
2022-07-27T23:58:04.658Z,9.85
